Time;durP1;ratioP1;P1;durP2;ratioP2;P2;SDS_P1;SDS_P2;PMS_P1;PMS_P2;Temp;Humidity;BMP_temperature;BMP_pressure;BME280_temperature;BME280_humidity;BME280_pressure;Samples;Min_cycle;Max_cycle;Signal;HPM_P1;HPM_P2
2022/04/28 00:01:54;;;;;;;10.35;2.88;;;8.50;99.90;;;;;;5058419;28;20045;-65
2022/04/28 00:04:19;;;;;;;11.75;3.13;;;8.50;99.90;;;;;;5049861;28;20044;-64
2022/04/28 00:06:45;;;;;;;7.63;2.45;;;8.40;99.90;;;;;;5051490;28;20064;-65
2022/04/28 00:09:11;;;;;;;7.65;2.08;;;8.40;99.90;;;;;;5051538;28;20102;-65
2022/04/28 00:11:37;;;;;;;5.28;2.42;;;8.30;99.90;;;;;;5058394;28;20582;-65
2022/04/28 00:14:02;;;;;;;4.65;2.15;;;8.30;99.90;;;;;;5055192;28;20040;-64
2022/04/28 00:16:28;;;;;;;6.75;2.30;;;8.30;99.90;;;;;;5055564;28;20063;-64
2022/04/28 00:18:54;;;;;;;4.35;2.00;;;8.30;99.90;;;;;;5057203;28;20048;-66
2022/04/28 00:21:20;;;;;;;7.15;2.50;;;8.30;99.90;;;;;;5063348;28;20041;-64
2022/04/28 00:23:45;;;;;;;6.85;2.55;;;8.30;99.90;;;;;;5057403;28;20124;-65
2022/04/28 00:26:11;;;;;;;9.75;3.10;;;8.30;99.90;;;;;;5055350;28;20422;-64
2022/04/28 00:28:37;;;;;;;4.65;1.88;;;8.40;99.90;;;;;;5052973;28;20063;-66
2022/04/28 00:31:02;;;;;;;5.63;2.13;;;8.40;99.90;;;;;;5054963;28;20174;-64
2022/04/28 00:33:28;;;;;;;7.30;2.28;;;8.40;99.90;;;;;;5057460;28;20255;-64
2022/04/28 00:35:55;;;;;;;4.30;2.25;;;8.30;99.90;;;;;;5053683;28;20051;-67
2022/04/28 00:38:20;;;;;;;5.10;2.25;;;8.40;99.90;;;;;;5057807;28;20119;-66
2022/04/28 00:40:46;;;;;;;6.45;2.47;;;8.30;99.90;;;;;;5055277;28;20080;-64
2022/04/28 00:43:18;;;;;;;6.38;2.47;;;8.40;99.90;;;;;;5054545;28;20049;-65
2022/04/28 00:45:44;;;;;;;5.22;2.55;;;8.10;99.90;;;;;;5061548;28;20175;-64
2022/04/28 00:50:57;;;;;;;5.75;2.47;;;8.30;99.90;;;;;;5054768;28;20041;-65
2022/04/28 00:53:25;;;;;;;6.65;2.38;;;8.30;99.90;;;;;;5053876;28;20051;-65
2022/04/28 00:55:51;;;;;;;4.53;2.50;;;8.40;99.90;;;;;;5053670;28;20071;-65
2022/04/28 00:58:16;;;;;;;8.52;2.95;;;8.30;99.90;;;;;;5053797;28;20502;-64
2022/04/28 01:00:42;;;;;;;10.70;3.55;;;8.30;99.90;;;;;;5054391;28;20029;-65
2022/04/28 01:03:09;;;;;;;10.52;2.55;;;8.30;99.90;;;;;;5057136;28;20115;-64
2022/04/28 01:05:35;;;;;;;6.13;2.45;;;8.30;99.90;;;;;;5053645;28;20044;-65
2022/04/28 01:08:01;;;;;;;8.77;2.17;;;8.30;99.90;;;;;;5051013;28;20049;-64
2022/04/28 01:10:26;;;;;;;7.43;2.08;;;8.30;99.90;;;;;;5060101;28;20041;-64
2022/04/28 01:12:52;;;;;;;5.82;2.50;;;8.30;99.90;;;;;;5061983;28;20051;-64
2022/04/28 01:15:18;;;;;;;9.30;2.28;;;8.30;99.90;;;;;;5056967;28;20170;-65
2022/04/28 01:17:43;;;;;;;5.95;2.83;;;8.30;99.90;;;;;;5060894;28;20080;-65
2022/04/28 01:20:09;;;;;;;8.80;3.10;;;8.30;99.90;;;;;;5062102;28;20052;-65
2022/04/28 01:22:35;;;;;;;5.50;2.03;;;8.30;99.90;;;;;;5057177;28;20709;-65
2022/04/28 01:25:07;;;;;;;5.70;2.33;;;8.30;99.90;;;;;;5058826;28;20067;-66
2022/04/28 01:27:34;;;;;;;6.33;2.53;;;8.20;99.90;;;;;;5056221;28;20055;-64
2022/04/28 01:30:00;;;;;;;3.83;2.30;;;8.20;99.90;;;;;;5058165;28;20055;-66
2022/04/28 01:32:26;;;;;;;6.95;2.47;;;8.10;99.90;;;;;;5059111;28;20037;-67
2022/04/28 01:34:52;;;;;;;12.20;2.65;;;8.20;99.90;;;;;;5051660;28;20122;-64
2022/04/28 01:37:18;;;;;;;9.05;2.80;;;8.20;99.90;;;;;;5052864;28;20044;-64
2022/04/28 01:39:43;;;;;;;4.18;2.20;;;8.20;99.90;;;;;;5057597;28;20080;-64
2022/04/28 01:42:09;;;;;;;5.55;2.45;;;8.20;99.90;;;;;;5061009;28;20090;-64
2022/04/28 01:44:35;;;;;;;9.55;2.63;;;8.20;99.90;;;;;;5053945;28;20044;-64
2022/04/28 01:47:01;;;;;;;8.18;2.47;;;8.20;99.90;;;;;;5053508;28;20053;-65
2022/04/28 01:49:27;;;;;;;8.15;2.40;;;8.10;99.90;;;;;;5056432;28;20041;-65
2022/04/28 01:54:57;;;;;;;4.72;2.13;;;8.20;99.90;;;;;;5035815;28;20045;-65
2022/04/28 01:57:24;;;;;;;9.93;2.95;;;8.20;99.90;;;;;;5057237;28;20043;-64
2022/04/28 01:59:50;;;;;;;6.05;2.58;;;8.20;99.90;;;;;;5059118;28;20048;-64
2022/04/28 02:02:16;;;;;;;4.90;2.30;;;8.30;99.90;;;;;;5057208;28;20055;-65
2022/04/28 02:04:42;;;;;;;7.68;2.80;;;8.30;99.90;;;;;;5056942;28;20041;-65
2022/04/28 02:07:08;;;;;;;5.88;2.35;;;8.30;99.90;;;;;;5057715;28;20056;-64
2022/04/28 02:09:33;;;;;;;5.85;2.30;;;8.30;99.90;;;;;;5052291;28;20051;-65
2022/04/28 02:11:59;;;;;;;5.75;2.05;;;8.30;99.90;;;;;;5057796;28;20049;-66
2022/04/28 02:14:25;;;;;;;6.05;2.35;;;8.30;99.90;;;;;;5057984;28;20711;-64
2022/04/28 02:16:51;;;;;;;6.30;2.70;;;8.30;99.90;;;;;;5056546;28;20124;-66
2022/04/28 02:19:17;;;;;;;7.65;2.78;;;8.20;99.90;;;;;;5058639;28;20167;-64
2022/04/28 02:21:42;;;;;;;6.93;2.63;;;8.20;99.90;;;;;;5050479;28;20124;-65
2022/04/28 02:24:08;;;;;;;6.03;2.83;;;8.20;99.90;;;;;;5053794;28;20126;-65
2022/04/28 02:26:34;;;;;;;7.00;2.53;;;8.20;99.90;;;;;;5058612;28;20480;-64
2022/04/28 02:28:59;;;;;;;4.35;2.45;;;8.30;99.90;;;;;;5055112;28;20467;-65
2022/04/28 02:31:25;;;;;;;4.13;2.67;;;8.20;99.90;;;;;;5057307;28;20080;-68
2022/04/28 02:33:51;;;;;;;7.22;2.63;;;8.20;99.90;;;;;;5054078;28;20040;-66
2022/04/28 02:36:17;;;;;;;6.68;2.63;;;8.20;99.90;;;;;;5054996;28;20844;-65
2022/04/28 02:38:42;;;;;;;7.90;2.70;;;8.20;99.90;;;;;;5051610;28;20487;-65
2022/04/28 02:41:08;;;;;;;9.57;3.08;;;8.20;99.90;;;;;;5052125;28;20036;-65
2022/04/28 02:43:34;;;;;;;7.45;2.72;;;8.10;99.90;;;;;;5053695;28;20110;-66
2022/04/28 02:46:00;;;;;;;5.53;2.95;;;8.10;99.90;;;;;;5058624;28;20037;-64
2022/04/28 02:48:26;;;;;;;5.28;2.55;;;8.10;99.90;;;;;;5056544;28;20058;-67
2022/04/28 02:50:52;;;;;;;4.65;2.47;;;8.10;99.90;;;;;;5057166;28;20045;-65
2022/04/28 02:53:18;;;;;;;8.02;2.67;;;8.10;99.90;;;;;;5052447;28;20562;-65
2022/04/28 02:55:43;;;;;;;7.18;3.30;;;8.00;99.90;;;;;;5059278;28;20062;-65
2022/04/28 02:58:09;;;;;;;6.03;2.70;;;8.00;99.90;;;;;;5051196;28;20460;-66
2022/04/28 03:00:38;;;;;;;7.63;3.03;;;8.00;99.90;;;;;;5055859;28;20056;-65
2022/04/28 03:03:04;;;;;;;6.88;2.80;;;8.00;99.90;;;;;;5054132;28;20045;-65
2022/04/28 03:05:30;;;;;;;8.30;3.25;;;8.00;99.90;;;;;;5056101;28;20041;-65
2022/04/28 03:10:49;;;;;;;8.77;3.83;;;8.00;99.90;;;;;;5051622;28;20045;-65
2022/04/28 03:13:17;;;;;;;5.95;3.40;;;8.00;99.90;;;;;;5051573;28;20052;-65
2022/04/28 03:15:45;;;;;;;8.93;3.17;;;8.10;99.90;;;;;;5057537;28;20112;-65
2022/04/28 03:18:12;;;;;;;6.75;2.67;;;8.10;99.90;;;;;;5052395;28;20099;-65
2022/04/28 03:20:37;;;;;;;10.40;3.22;;;8.00;99.90;;;;;;5055931;28;20033;-65
2022/04/28 03:23:03;;;;;;;5.38;2.60;;;8.10;99.90;;;;;;5050673;28;20047;-66
2022/04/28 03:25:28;;;;;;;9.10;2.70;;;8.00;99.90;;;;;;5052811;28;20460;-65
2022/04/28 03:27:56;;;;;;;10.50;3.42;;;8.00;99.90;;;;;;5054589;28;20582;-66
2022/04/28 03:30:22;;;;;;;5.70;2.75;;;8.10;99.90;;;;;;5051657;28;20044;-65
2022/04/28 03:32:48;;;;;;;5.68;2.97;;;8.00;99.90;;;;;;5055223;28;20037;-64
2022/04/28 03:35:14;;;;;;;9.50;3.20;;;8.00;99.90;;;;;;5055376;28;20091;-65
2022/04/28 03:37:40;;;;;;;6.57;3.22;;;8.00;99.90;;;;;;5050419;28;20418;-65
2022/04/28 03:40:06;;;;;;;13.63;3.95;;;8.00;99.90;;;;;;5050663;28;20091;-65
2022/04/28 03:42:33;;;;;;;4.82;2.88;;;8.00;99.90;;;;;;5053519;28;20094;-66
2022/04/28 03:44:58;;;;;;;13.98;3.47;;;8.00;99.90;;;;;;5053138;28;20525;-67
2022/04/28 03:47:24;;;;;;;5.85;2.90;;;8.00;99.90;;;;;;5051656;28;20072;-65
2022/04/28 03:49:49;;;;;;;6.85;3.13;;;8.00;99.90;;;;;;5050595;28;20052;-65
2022/04/28 03:52:15;;;;;;;7.50;3.83;;;8.00;99.90;;;;;;5049704;28;20802;-65
2022/04/28 03:54:40;;;;;;;8.77;3.78;;;8.00;99.90;;;;;;5051404;28;20464;-64
2022/04/28 03:57:06;;;;;;;5.70;3.15;;;8.00;99.90;;;;;;5051660;28;20041;-65
2022/04/28 03:59:32;;;;;;;5.68;3.20;;;8.00;99.90;;;;;;5054346;28;20550;-67
2022/04/28 04:01:58;;;;;;;7.07;3.08;;;8.00;99.90;;;;;;5053174;28;20125;-65
2022/04/28 04:04:24;;;;;;;4.30;2.95;;;7.90;99.90;;;;;;5056510;28;20123;-67
2022/04/28 04:06:49;;;;;;;6.38;3.08;;;7.90;99.90;;;;;;5055392;28;20124;-64
2022/04/28 04:09:15;;;;;;;9.30;3.92;;;7.90;99.90;;;;;;5051873;28;20057;-65
2022/04/28 04:11:40;;;;;;;9.48;3.85;;;7.90;99.90;;;;;;5052830;28;20045;-65
2022/04/28 04:14:06;;;;;;;10.48;3.45;;;7.80;99.90;;;;;;5049270;28;20056;-65
2022/04/28 04:16:31;;;;;;;6.40;3.58;;;7.90;99.90;;;;;;5051897;28;20124;-66
2022/04/28 04:18:57;;;;;;;9.73;3.47;;;7.90;99.90;;;;;;5051764;28;20060;-67
2022/04/28 04:21:23;;;;;;;9.38;3.25;;;7.90;99.90;;;;;;5054159;28;20117;-66
2022/04/28 04:23:48;;;;;;;13.02;4.10;;;8.00;99.90;;;;;;5052801;28;20044;-65
2022/04/28 04:26:14;;;;;;;4.65;2.80;;;7.90;99.90;;;;;;5054089;28;20048;-65
2022/04/28 04:28:39;;;;;;;8.82;3.85;;;8.00;99.90;;;;;;5052750;28;20560;-65
2022/04/28 04:33:49;;;;;;;6.13;3.28;;;8.10;99.90;;;;;;5054341;28;20048;-65
2022/04/28 04:36:15;;;;;;;6.85;3.30;;;8.10;99.90;;;;;;5052413;28;20202;-65
2022/04/28 04:38:40;;;;;;;11.80;4.57;;;8.10;99.90;;;;;;5057334;28;20054;-65
2022/04/28 04:41:10;;;;;;;8.70;3.45;;;8.10;99.90;;;;;;5062440;28;20039;-65
2022/04/28 04:43:36;;;;;;;7.72;3.13;;;8.20;99.90;;;;;;5054932;28;20044;-65
2022/04/28 04:46:02;;;;;;;9.95;3.97;;;8.30;99.90;;;;;;5056012;28;20037;-66
2022/04/28 04:48:27;;;;;;;11.75;4.18;;;8.30;99.90;;;;;;5052314;28;20060;-67
2022/04/28 04:50:54;;;;;;;6.82;3.45;;;8.30;99.90;;;;;;5051564;28;20127;-65
2022/04/28 04:53:21;;;;;;;8.90;3.20;;;8.40;99.90;;;;;;5052805;28;20578;-65
2022/04/28 04:55:47;;;;;;;9.15;3.35;;;8.40;99.90;;;;;;5048643;28;20037;-66
2022/04/28 04:58:12;;;;;;;11.52;3.30;;;8.40;99.90;;;;;;5054354;28;20049;-64
2022/04/28 05:00:38;;;;;;;11.27;2.92;;;8.50;99.90;;;;;;5052267;28;20090;-65
2022/04/28 05:03:03;;;;;;;12.35;2.97;;;8.40;99.90;;;;;;5054421;28;20411;-65
2022/04/28 05:05:29;;;;;;;16.23;3.70;;;8.50;99.90;;;;;;5052929;28;20044;-65
2022/04/28 05:07:54;;;;;;;8.43;2.50;;;8.50;99.90;;;;;;5055251;28;20056;-66
2022/04/28 05:10:20;;;;;;;3.90;2.40;;;8.50;99.90;;;;;;5049353;28;20053;-64
2022/04/28 05:12:46;;;;;;;8.13;2.25;;;8.50;99.90;;;;;;5052173;28;20037;-65
2022/04/28 05:15:12;;;;;;;7.15;2.40;;;8.50;99.90;;;;;;5050079;28;20127;-66
2022/04/28 05:17:38;;;;;;;10.55;2.20;;;8.50;99.90;;;;;;5051609;28;20033;-64
2022/04/28 05:20:06;;;;;;;7.30;2.60;;;8.60;99.90;;;;;;5053122;28;20106;-64
2022/04/28 05:22:32;;;;;;;8.88;3.05;;;8.60;99.90;;;;;;5053726;28;20094;-64
2022/04/28 05:24:58;;;;;;;6.78;2.60;;;8.60;99.90;;;;;;5053391;28;20619;-64
2022/04/28 05:27:24;;;;;;;5.47;1.98;;;8.60;99.90;;;;;;5053606;28;20113;-64
2022/04/28 05:29:50;;;;;;;4.68;2.45;;;8.70;99.90;;;;;;5052775;28;20041;-64
2022/04/28 05:32:15;;;;;;;10.90;3.03;;;8.60;99.90;;;;;;5052052;28;20577;-64
2022/04/28 05:34:41;;;;;;;4.65;2.25;;;8.70;99.90;;;;;;5056683;28;20052;-68
2022/04/28 05:37:07;;;;;;;7.15;2.60;;;8.60;99.90;;;;;;5053018;28;20041;-66
2022/04/28 05:39:32;;;;;;;6.53;2.67;;;8.60;99.90;;;;;;5052653;28;20048;-64
2022/04/28 05:41:58;;;;;;;6.55;2.50;;;8.60;99.90;;;;;;5056793;28;20040;-65
2022/04/28 05:47:08;;;;;;;9.25;2.40;;;8.50;99.90;;;;;;5047644;28;20048;-64
2022/04/28 05:49:33;;;;;;;14.85;3.67;;;8.50;99.90;;;;;;5052293;28;20460;-64
2022/04/28 05:52:00;;;;;;;9.75;2.38;;;8.50;99.90;;;;;;5047498;28;20064;-65
2022/04/28 05:54:26;;;;;;;4.40;2.55;;;8.50;99.90;;;;;;5049810;28;20060;-67
2022/04/28 05:56:52;;;;;;;5.88;2.17;;;8.50;99.90;;;;;;5052771;28;20040;-64
2022/04/28 05:59:18;;;;;;;6.55;2.45;;;8.50;99.90;;;;;;5055932;28;20512;-65
2022/04/28 06:01:43;;;;;;;10.35;3.22;;;8.60;99.90;;;;;;5055677;28;20083;-65
2022/04/28 06:04:09;;;;;;;7.40;3.20;;;8.60;99.90;;;;;;5052343;28;20463;-65
2022/04/28 06:06:36;;;;;;;4.57;2.58;;;8.60;99.90;;;;;;5057759;28;20498;-65
2022/04/28 06:09:02;;;;;;;21.40;3.53;;;8.70;99.90;;;;;;5053494;28;20075;-65
2022/04/28 06:11:27;;;;;;;10.32;3.03;;;8.70;99.90;;;;;;5056697;28;20131;-64
2022/04/28 06:13:53;;;;;;;5.95;2.92;;;8.70;99.90;;;;;;5053200;28;20124;-67
2022/04/28 06:16:19;;;;;;;5.05;2.78;;;8.80;99.90;;;;;;5053596;28;20498;-64
2022/04/28 06:18:44;;;;;;;6.57;3.17;;;8.90;99.90;;;;;;5050438;28;20121;-64
2022/04/28 06:21:10;;;;;;;8.27;3.25;;;8.90;99.90;;;;;;5053700;28;20915;-64
2022/04/28 06:23:35;;;;;;;10.88;2.80;;;9.00;99.90;;;;;;5059311;28;20044;-64
2022/04/28 06:26:01;;;;;;;8.63;2.40;;;9.00;99.90;;;;;;5053459;28;20417;-66
2022/04/28 06:28:27;;;;;;;10.82;2.97;;;9.10;99.90;;;;;;5057211;28;20080;-64
2022/04/28 06:30:53;;;;;;;6.95;1.77;;;9.10;99.90;;;;;;5060905;28;20036;-65
2022/04/28 06:33:20;;;;;;;5.07;1.75;;;9.20;99.90;;;;;;5056746;28;20687;-65
2022/04/28 06:35:46;;;;;;;8.13;2.13;;;9.10;99.90;;;;;;5060693;28;20116;-64
2022/04/28 06:38:12;;;;;;;6.10;1.48;;;9.00;99.90;;;;;;5057073;28;20518;-64
2022/04/28 06:40:37;;;;;;;11.65;2.05;;;9.00;99.90;;;;;;5051353;28;20040;-65
2022/04/28 06:43:03;;;;;;;8.02;4.65;;;8.90;99.90;;;;;;5057363;28;20458;-65
2022/04/28 06:45:29;;;;;;;9.48;4.20;;;8.90;99.90;;;;;;5058082;28;20135;-65
2022/04/28 06:47:54;;;;;;;8.82;3.22;;;8.80;99.90;;;;;;5057994;28;20060;-64
2022/04/28 06:50:20;;;;;;;7.32;2.30;;;8.80;99.90;;;;;;5058407;28;20052;-65
2022/04/28 06:52:45;;;;;;;6.20;2.53;;;8.70;99.90;;;;;;5057739;28;20714;-64
2022/04/28 06:55:11;;;;;;;7.97;2.42;;;8.80;99.90;;;;;;5056679;28;20421;-65
2022/04/28 06:57:37;;;;;;;10.05;1.65;;;8.90;99.90;;;;;;5054094;28;20471;-65
2022/04/28 07:00:04;;;;;;;8.30;1.73;;;9.00;99.90;;;;;;5057123;28;20037;-64
2022/04/28 07:02:30;;;;;;;5.45;1.75;;;9.00;99.90;;;;;;5060772;28;20059;-64
2022/04/28 07:04:56;;;;;;;10.73;2.03;;;9.00;99.90;;;;;;5053105;28;20048;-70
2022/04/28 07:07:22;;;;;;;4.75;1.85;;;9.10;99.90;;;;;;5049606;28;20135;-71
2022/04/28 07:09:48;;;;;;;7.13;1.77;;;9.00;99.90;;;;;;5053941;28;20048;-61
2022/04/28 07:12:14;;;;;;;7.75;2.05;;;9.10;99.90;;;;;;5054251;28;20047;-62
2022/04/28 07:14:40;;;;;;;7.82;2.42;;;9.10;99.90;;;;;;5052297;28;20044;-64
2022/04/28 07:17:05;;;;;;;9.80;2.63;;;9.10;99.90;;;;;;5051017;28;20465;-67
2022/04/28 07:19:31;;;;;;;5.15;1.98;;;9.20;99.90;;;;;;5058201;28;20470;-67
2022/04/28 07:21:58;;;;;;;6.75;2.30;;;9.20;99.90;;;;;;5061624;28;20036;-68
2022/04/28 07:24:24;;;;;;;9.30;3.05;;;9.20;99.90;;;;;;5053161;28;20097;-68
2022/04/28 07:26:49;;;;;;;6.47;3.00;;;9.30;99.90;;;;;;5060245;28;20049;-67
2022/04/28 07:29:15;;;;;;;6.03;2.10;;;9.30;99.90;;;;;;5056836;28;20043;-68
2022/04/28 07:31:40;;;;;;;5.63;2.38;;;9.30;99.90;;;;;;5054308;28;20072;-68
2022/04/28 07:34:06;;;;;;;5.55;1.95;;;9.40;99.90;;;;;;5059044;28;20510;-69
2022/04/28 07:36:31;;;;;;;7.95;2.00;;;9.40;99.90;;;;;;5056022;28;20032;-69
2022/04/28 07:38:58;;;;;;;4.22;1.60;;;9.50;99.90;;;;;;5053489;28;20086;-70
2022/04/28 07:41:24;;;;;;;8.38;2.08;;;9.60;99.90;;;;;;5053932;28;20058;-69
2022/04/28 07:43:50;;;;;;;6.40;2.28;;;9.60;99.90;;;;;;5056006;28;20463;-70
2022/04/28 07:46:15;;;;;;;5.55;1.92;;;9.70;99.90;;;;;;5054528;28;20872;-69
2022/04/28 07:48:41;;;;;;;5.10;1.52;;;9.80;99.90;;;;;;5064121;28;20536;-69
2022/04/28 07:51:06;;;;;;;4.68;1.65;;;9.90;99.90;;;;;;5056175;28;20037;-69
2022/04/28 07:53:32;;;;;;;8.45;1.30;;;9.90;99.90;;;;;;5057499;28;20057;-69
2022/04/28 07:56:11;;;;;;;4.10;1.35;;;10.00;99.90;;;;;;5044748;28;20053;-69
2022/04/28 07:58:37;;;;;;;7.78;1.75;;;10.00;99.90;;;;;;5044935;28;20405;-69
2022/04/28 08:01:06;;;;;;;4.10;1.52;;;10.10;99.90;;;;;;5045631;28;20037;-70
2022/04/28 08:03:32;;;;;;;12.50;1.98;;;10.20;99.90;;;;;;5051953;28;20048;-69
2022/04/28 08:05:58;;;;;;;3.63;1.40;;;10.80;99.90;;;;;;5056862;28;20032;-69
2022/04/28 08:08:24;;;;;;;4.32;1.45;;;10.40;99.90;;;;;;5058335;28;20040;-69
2022/04/28 08:10:50;;;;;;;16.55;2.10;;;10.50;99.90;;;;;;5057248;28;20398;-68
2022/04/28 08:13:16;;;;;;;5.15;1.65;;;10.70;99.90;;;;;;5052808;28;20102;-69
2022/04/28 08:15:42;;;;;;;6.22;2.00;;;10.80;99.90;;;;;;5055811;28;20486;-68
2022/04/28 08:18:08;;;;;;;6.05;1.77;;;10.80;99.90;;;;;;5060672;28;20051;-69
2022/04/28 08:20:33;;;;;;;5.72;1.63;;;10.70;99.90;;;;;;5065680;28;20090;-69
2022/04/28 08:22:59;;;;;;;8.48;2.28;;;10.60;99.90;;;;;;5055055;28;20407;-69
2022/04/28 08:25:25;;;;;;;11.65;2.10;;;10.60;99.90;;;;;;5053689;28;20552;-69
2022/04/28 08:27:50;;;;;;;7.93;2.15;;;10.60;99.90;;;;;;5053848;28;20482;-68
2022/04/28 08:30:16;;;;;;;8.38;2.33;;;10.60;99.90;;;;;;5053426;28;20206;-69
2022/04/28 08:32:41;;;;;;;5.82;1.70;;;10.60;99.90;;;;;;5051203;28;20036;-69
2022/04/28 08:35:08;;;;;;;9.38;2.65;;;10.50;99.90;;;;;;5051304;28;20128;-69
2022/04/28 08:37:33;;;;;;;4.15;1.60;;;10.60;99.90;;;;;;5054152;28;20084;-69
2022/04/28 08:39:59;;;;;;;8.10;1.80;;;10.60;99.90;;;;;;5055241;28;20080;-70
2022/04/28 08:42:26;;;;;;;6.43;1.60;;;10.60;99.90;;;;;;5063462;28;20039;-68
2022/04/28 08:44:58;;;;;;;7.60;2.35;;;10.70;99.90;;;;;;5050612;28;20403;-68
2022/04/28 08:47:24;;;;;;;6.57;1.97;;;10.70;99.90;;;;;;5050225;28;20060;-69
2022/04/28 08:49:50;;;;;;;7.07;2.08;;;10.80;99.90;;;;;;5062179;28;20506;-69
2022/04/28 08:52:17;;;;;;;8.80;3.63;;;10.80;99.90;;;;;;5052222;28;20128;-70
2022/04/28 08:54:44;;;;;;;5.13;2.20;;;10.80;99.90;;;;;;5051666;28;20049;-69
2022/04/28 08:57:12;;;;;;;7.45;2.25;;;10.80;99.90;;;;;;5065479;28;20036;-69
2022/04/28 08:59:38;;;;;;;7.10;2.38;;;10.80;99.90;;;;;;5059816;28;20051;-69
2022/04/28 09:02:04;;;;;;;10.88;2.35;;;10.90;99.90;;;;;;5052943;28;20044;-66
2022/04/28 09:04:30;;;;;;;9.35;2.35;;;10.80;99.90;;;;;;5056173;28;20052;-68
2022/04/28 09:06:56;;;;;;;8.52;2.38;;;10.80;99.90;;;;;;5052041;28;20388;-68
2022/04/28 09:09:24;;;;;;;5.20;2.08;;;10.90;99.90;;;;;;5052807;28;20094;-68
2022/04/28 09:11:50;;;;;;;7.22;2.65;;;11.00;99.90;;;;;;5049922;28;20491;-68
2022/04/28 09:14:20;;;;;;;7.63;2.47;;;11.10;99.90;;;;;;5055588;28;20055;-69
2022/04/28 09:16:56;;;;;;;10.25;2.55;;;11.10;99.90;;;;;;5059101;28;20045;-68
2022/04/28 09:19:36;;;;;;;9.95;2.65;;;11.10;99.90;;;;;;5052960;28;20112;-68
2022/04/28 09:22:06;;;;;;;11.45;2.80;;;11.20;99.90;;;;;;5062006;28;20049;-69
2022/04/28 09:24:33;;;;;;;7.38;2.53;;;11.30;99.90;;;;;;5056527;28;20044;-69
2022/04/28 09:26:59;;;;;;;8.18;2.72;;;11.30;99.90;;;;;;5053098;28;20572;-70
2022/04/28 09:29:29;;;;;;;8.07;2.78;;;11.40;99.90;;;;;;5058589;28;20045;-69
2022/04/28 09:31:55;;;;;;;11.05;2.83;;;11.40;99.90;;;;;;5055741;28;20479;-68
2022/04/28 09:34:23;;;;;;;5.47;2.30;;;11.30;99.90;;;;;;5062929;28;20406;-69
2022/04/28 09:36:49;;;;;;;16.77;3.40;;;11.30;99.90;;;;;;5050321;28;20056;-68
2022/04/28 09:42:29;;;;;;;10.13;3.13;;;11.40;99.90;;;;;;5056587;28;20053;-69
2022/04/28 09:44:55;;;;;;;;;;;11.10;99.90;;;;;;5065340;28;20506;-70
2022/04/28 09:47:22;;;;;;;11.68;3.30;;;11.10;99.90;;;;;;5050614;28;19920;-68
2022/04/28 09:49:52;;;;;;;9.98;3.10;;;11.20;99.90;;;;;;5055640;28;20056;-69
2022/04/28 09:52:24;;;;;;;8.55;3.50;;;11.10;99.90;;;;;;5059985;28;20441;-67
2022/04/28 09:54:51;;;;;;;6.00;2.35;;;11.30;99.90;;;;;;5055787;28;20049;-68
2022/04/28 09:57:21;;;;;;;6.10;2.25;;;11.40;99.90;;;;;;5054168;28;20041;-68
2022/04/28 09:59:57;;;;;;;7.30;2.63;;;11.40;99.90;;;;;;5059224;28;20445;-69
2022/04/28 10:02:25;;;;;;;6.60;2.50;;;11.50;99.90;;;;;;5056069;28;20106;-69
2022/04/28 10:04:52;;;;;;;7.38;3.30;;;11.50;99.90;;;;;;5056104;28;20040;-69
2022/04/28 10:07:18;;;;;;;9.75;2.80;;;11.50;99.90;;;;;;5054883;28;20404;-69
2022/04/28 10:09:52;;;;;;;6.47;2.47;;;11.50;99.90;;;;;;5055897;28;20183;-69
2022/04/28 10:12:22;;;;;;;12.27;3.17;;;11.50;99.90;;;;;;5047624;28;20268;-69
2022/04/28 10:14:48;;;;;;;7.40;2.72;;;11.50;99.90;;;;;;5052492;28;20056;-69
2022/04/28 10:17:27;;;;;;;9.20;2.95;;;11.50;99.90;;;;;;5059217;28;20084;-69
2022/04/28 10:19:57;;;;;;;8.10;2.22;;;11.50;99.90;;;;;;5056209;28;20657;-69
2022/04/28 10:22:29;;;;;;;5.93;2.60;;;11.60;99.90;;;;;;5063179;28;20720;-69
2022/04/28 10:33:19;;;;;;;11.45;3.00;;;11.90;99.90;;;;;;5047254;28;20049;-69
2022/04/28 10:35:56;;;;;;;8.13;2.03;;;11.90;99.90;;;;;;5048151;28;20056;-69
2022/04/28 10:38:21;;;;;;;6.10;2.47;;;12.00;99.90;;;;;;5047024;28;20053;-69
2022/04/28 10:41:00;;;;;;;10.18;2.45;;;12.10;99.90;;;;;;5055817;28;20127;-69
2022/04/28 10:43:32;;;;;;;4.90;2.13;;;12.10;99.90;;;;;;5061452;28;20406;-70
2022/04/28 10:46:22;;;;;;;3.50;1.95;;;12.10;99.90;;;;;;5052670;28;20053;-69
2022/04/28 10:48:53;;;;;;;10.50;2.80;;;12.20;99.90;;;;;;5059138;28;20206;-69
2022/04/28 10:51:22;;;;;;;5.43;1.60;;;12.10;99.90;;;;;;5054118;28;20330;-69
2022/04/28 10:54:07;;;;;;;6.40;2.35;;;12.10;99.90;;;;;;5057187;28;20471;-69
2022/04/28 10:56:42;;;;;;;5.78;2.00;;;12.00;99.90;;;;;;5048008;28;20045;-69
2022/04/28 10:59:26;;;;;;;7.53;2.17;;;11.90;99.90;;;;;;5050654;28;20049;-69
2022/04/28 11:01:52;;;;;;;12.43;3.17;;;11.90;99.90;;;;;;5052059;28;20421;-69
2022/04/28 11:04:23;;;;;;;9.98;2.50;;;11.90;99.90;;;;;;5055109;28;20509;-69
2022/04/28 11:06:55;;;;;;;9.55;1.80;;;12.00;99.90;;;;;;5056904;28;20047;-70
2022/04/28 11:09:40;;;;;;;;;;;12.00;99.90;;;;;;5051832;28;20052;-70
2022/04/28 11:12:16;;;;;;;8.35;1.95;;;12.00;99.90;;;;;;5054628;28;20497;-70
2022/04/28 11:14:46;;;;;;;9.68;2.80;;;12.10;99.90;;;;;;5053027;28;20418;-69
2022/04/28 11:17:12;;;;;;;9.40;2.13;;;12.10;99.90;;;;;;5049763;28;20491;-69
2022/04/28 11:19:39;;;;;;;6.95;2.13;;;12.10;99.90;;;;;;5056479;28;20052;-69
2022/04/28 11:22:05;;;;;;;6.10;2.35;;;12.10;99.90;;;;;;5055955;28;20228;-68
2022/04/28 11:24:30;;;;;;;12.70;2.40;;;12.10;99.90;;;;;;5061396;28;20575;-69
2022/04/28 11:27:00;;;;;;;7.45;1.90;;;12.10;99.90;;;;;;5059567;28;20037;-69
2022/04/28 11:29:28;;;;;;;10.70;2.03;;;12.00;99.90;;;;;;5052418;28;20072;-69
2022/04/28 11:31:53;;;;;;;8.75;2.55;;;12.00;99.90;;;;;;5056609;28;20123;-69
2022/04/28 11:34:20;;;;;;;10.80;2.50;;;12.10;99.90;;;;;;5057002;28;20140;-68
2022/04/28 11:36:46;;;;;;;7.10;2.30;;;12.20;99.90;;;;;;5056158;28;20049;-68
2022/04/28 11:39:12;;;;;;;9.82;2.00;;;12.20;99.90;;;;;;5051825;28;20051;-68
2022/04/28 11:41:40;;;;;;;6.97;1.90;;;12.30;99.90;;;;;;5055410;28;20483;-68
2022/04/28 11:44:16;;;;;;;7.10;2.22;;;12.30;99.90;;;;;;5050440;28;20080;-69
2022/04/28 11:46:42;;;;;;;9.35;2.38;;;12.30;99.90;;;;;;5051723;28;20083;-69
2022/04/28 11:49:08;;;;;;;10.73;1.88;;;12.30;99.90;;;;;;5049026;28;20091;-69
2022/04/28 11:51:36;;;;;;;14.55;2.20;;;12.30;99.90;;;;;;5051393;28;20056;-69
2022/04/28 11:54:04;;;;;;;8.10;2.42;;;12.30;99.90;;;;;;5054333;28;20451;-68
2022/04/28 11:56:31;;;;;;;9.13;2.33;;;12.10;99.90;;;;;;5051409;28;20056;-68
2022/04/28 11:58:58;;;;;;;8.98;2.00;;;12.10;99.90;;;;;;5053201;28;20387;-68
2022/04/28 12:01:29;;;;;;;10.90;2.40;;;12.00;99.90;;;;;;5062011;28;20055;-68
2022/04/28 12:03:56;;;;;;;9.57;2.55;;;12.10;99.90;;;;;;5062182;28;20033;-70
2022/04/28 12:06:24;;;;;;;6.38;1.90;;;12.00;99.90;;;;;;5052925;28;20095;-69
2022/04/28 12:08:55;;;;;;;6.78;2.05;;;12.10;99.90;;;;;;5054224;28;20044;-70
2022/04/28 12:14:24;;;;;;;7.88;2.08;;;12.10;99.90;;;;;;5054017;28;20319;-69
2022/04/28 12:20:05;;;;;;;6.28;1.80;;;12.20;99.90;;;;;;4980902;28;20117;-71
2022/04/28 12:22:35;;;;;;;5.43;2.70;;;12.20;99.90;;;;;;4983397;28;20054;-70
2022/04/28 12:25:17;;;;;;;5.50;1.90;;;12.40;99.90;;;;;;5016479;28;20135;-68
2022/04/28 12:27:50;;;;;;;6.85;2.42;;;12.40;99.90;;;;;;5049754;28;20049;-68
2022/04/28 12:30:18;;;;;;;10.02;2.50;;;12.50;99.90;;;;;;5049718;28;20052;-69
2022/04/28 12:32:52;;;;;;;7.18;2.03;;;12.40;99.90;;;;;;5051964;28;20142;-67
2022/04/28 12:35:27;;;;;;;13.85;2.67;;;12.40;99.90;;;;;;5056898;28;20517;-68
2022/04/28 12:38:07;;;;;;;11.45;2.55;;;12.30;99.90;;;;;;5053607;28;20891;-68
2022/04/28 12:40:42;;;;;;;6.60;1.92;;;12.30;99.90;;;;;;5056800;28;20264;-68
2022/04/28 12:43:09;;;;;;;8.95;2.28;;;12.30;99.90;;;;;;5060747;28;20130;-68
2022/04/28 12:45:41;;;;;;;8.40;2.08;;;12.20;99.90;;;;;;5058614;28;20045;-69
2022/04/28 12:48:25;;;;;;;7.55;2.10;;;12.10;99.90;;;;;;5053114;28;20468;-69
2022/04/28 12:51:06;;;;;;;5.45;2.22;;;12.20;99.90;;;;;;5053746;28;20040;-69
2022/04/28 12:53:34;;;;;;;3.17;1.92;;;12.40;99.90;;;;;;5056826;28;20434;-68
2022/04/28 12:56:07;;;;;;;5.20;2.13;;;12.60;99.90;;;;;;5059578;28;20083;-68
2022/04/28 12:58:45;;;;;;;8.88;2.50;;;12.70;99.90;;;;;;5059135;28;20116;-69
2022/04/28 13:01:18;;;;;;;4.07;2.20;;;12.70;99.90;;;;;;5056695;28;20045;-69
2022/04/28 13:03:56;;;;;;;7.03;1.92;;;12.90;99.90;;;;;;5049057;28;20081;-69
2022/04/28 13:06:29;;;;;;;5.43;2.65;;;13.00;99.90;;;;;;5066157;28;20080;-69
2022/04/28 13:08:58;;;;;;;6.05;2.42;;;12.90;99.90;;;;;;5060705;28;20383;-69
2022/04/28 13:11:26;;;;;;;6.05;2.00;;;12.70;99.90;;;;;;5056707;28;20064;-69
2022/04/28 13:13:56;;;;;;;5.75;2.40;;;12.50;99.90;;;;;;5053980;28;20045;-69
2022/04/28 13:16:23;;;;;;;6.70;2.13;;;12.50;99.90;;;;;;5062046;28;20044;-68
2022/04/28 13:18:49;;;;;;;5.35;1.67;;;12.60;99.90;;;;;;5065634;28;20041;-69
2022/04/28 13:21:15;;;;;;;5.82;2.00;;;12.60;99.90;;;;;;5053689;28;20052;-68
2022/04/28 13:23:46;;;;;;;6.47;1.95;;;12.60;99.90;;;;;;5058802;28;20119;-69
2022/04/28 13:26:13;;;;;;;8.38;2.38;;;12.70;99.90;;;;;;5055050;28;20051;-69